Time;durP1;ratioP1;P1;durP2;ratioP2;P2;SDS_P1;SDS_P2;PMS_P1;PMS_P2;Temp;Humidity;BMP_temperature;BMP_pressure;BME280_temperature;BME280_humidity;BME280_pressure;Samples;Min_cycle;Max_cycle;Signal;HPM_P1;HPM_P2
2023/04/16 00:00:21;;;;;;;0.20;0.20;;;;;;;20.69;40.70;101622.00;5077463;28;20556;-45
2023/04/16 00:02:47;;;;;;;0.20;0.20;;;;;;;20.70;40.62;101614.50;5095298;28;20100;-45
2023/04/16 00:05:13;;;;;;;0.20;0.20;;;;;;;20.70;40.76;101623.66;5076793;28;20077;-46
2023/04/16 00:07:39;;;;;;;0.20;0.20;;;;;;;20.69;40.61;101626.69;5076236;28;20039;-46
2023/04/16 00:10:06;;;;;;;0.20;0.20;;;;;;;20.69;40.46;101623.94;5095385;28;20075;-47
2023/04/16 00:12:32;;;;;;;0.20;0.20;;;;;;;20.69;40.71;101621.16;5095186;28;20503;-46
2023/04/16 00:14:58;;;;;;;0.20;0.20;;;;;;;20.70;40.76;101628.34;5076803;28;20130;-46
2023/04/16 00:17:23;;;;;;;0.20;0.20;;;;;;;20.71;40.76;101630.00;5076616;28;20039;-49
2023/04/16 00:19:49;;;;;;;0.20;0.20;;;;;;;20.70;40.61;101629.19;5095205;28;20668;-45
2023/04/16 00:22:15;;;;;;;0.20;0.20;;;;;;;20.70;40.58;101625.59;5095355;28;20047;-45
2023/04/16 00:24:41;;;;;;;0.20;0.20;;;;;;;20.70;40.71;101622.81;5097403;28;20047;-47
2023/04/16 00:27:06;;;;;;;0.20;0.20;;;;;;;20.71;40.51;101624.47;5099483;28;20133;-48
2023/04/16 00:29:33;;;;;;;0.20;0.20;;;;;;;20.70;40.45;101622.81;5095190;28;20067;-46
2023/04/16 00:31:59;;;;;;;0.20;0.20;;;;;;;20.70;40.76;101622.81;5095399;28;20083;-45
2023/04/16 00:34:25;;;;;;;0.20;0.20;;;;;;;20.70;40.57;101615.34;5089166;28;20051;-45
2023/04/16 00:36:50;;;;;;;0.20;0.20;;;;;;;20.70;40.58;101629.19;5093941;28;20052;-47
2023/04/16 00:39:16;;;;;;;0.20;0.20;;;;;;;20.70;40.74;101626.41;5094164;28;20495;-46
2023/04/16 00:41:42;;;;;;;0.20;0.20;;;;;;;20.70;40.69;101623.66;5094401;28;20126;-46
2023/04/16 00:44:08;;;;;;;0.30;0.30;;;;;;;20.70;40.63;101628.34;5094736;28;20480;-47
2023/04/16 00:46:34;;;;;;;0.20;0.20;;;;;;;20.69;40.63;101627.53;5103109;28;20047;-44
2023/04/16 00:49:01;;;;;;;0.20;0.20;;;;;;;20.70;40.46;101626.41;5094458;28;20047;-48
2023/04/16 00:51:27;;;;;;;0.20;0.20;;;;;;;20.70;40.80;101628.34;5076071;28;20044;-46
2023/04/16 00:53:53;;;;;;;0.20;0.20;;;;;;;20.70;40.71;101625.59;5094427;28;20108;-45
2023/04/16 00:56:19;;;;;;;0.20;0.20;;;;;;;20.69;40.55;101633.06;5094189;28;20101;-45
2023/04/16 00:58:46;;;;;;;0.13;0.13;;;;;;;20.70;40.71;101628.34;5094102;28;20461;-45
2023/04/16 01:01:13;;;;;;;0.25;0.25;;;;;;;20.70;40.59;101631.94;5093811;28;20050;-46
2023/04/16 01:03:42;;;;;;;0.20;0.20;;;;;;;20.70;40.74;101631.94;5093904;28;20074;-45
2023/04/16 01:06:08;;;;;;;0.20;0.20;;;;;;;20.70;40.51;101626.41;5059201;28;20368;-45
2023/04/16 01:08:34;;;;;;;0.20;0.20;;;;;;;20.70;40.77;101631.94;5093644;28;20054;-45
2023/04/16 01:11:00;;;;;;;0.20;0.20;;;;;;;20.70;40.56;101633.91;5093491;28;20428;-48
2023/04/16 01:13:25;;;;;;;0.20;0.20;;;;;;;20.70;40.50;101636.66;5075945;28;20051;-47
2023/04/16 01:15:51;;;;;;;0.20;0.20;;;;;;;20.69;40.66;101641.38;5093712;28;20050;-47
2023/04/16 01:18:18;;;;;;;0.20;0.20;;;;;;;20.70;40.55;101636.66;5093876;28;20496;-45
2023/04/16 01:20:45;;;;;;;0.20;0.20;;;;;;;20.70;40.67;101642.19;5095148;28;20040;-47
2023/04/16 01:23:10;;;;;;;0.20;0.20;;;;;;;20.69;40.61;101638.59;5079107;28;20047;-45
2023/04/16 01:25:36;;;;;;;0.20;0.20;;;;;;;20.70;40.62;101634.72;5097500;28;20401;-45
2023/04/16 01:28:02;;;;;;;0.10;0.10;;;;;;;20.69;40.52;101646.91;5108327;28;20510;-46
2023/04/16 01:30:28;;;;;;;0.20;0.20;;;;;;;20.71;40.61;101643.84;5098752;28;20079;-46
2023/04/16 01:32:53;;;;;;;0.20;0.20;;;;;;;20.71;40.80;101646.63;5117859;27;20043;-47
2023/04/16 01:35:19;;;;;;;0.20;0.20;;;;;;;20.71;40.78;101636.38;5103100;28;20043;-45
2023/04/16 01:37:45;;;;;;;0.20;0.20;;;;;;;20.70;40.83;101640.25;5097354;28;20051;-45
2023/04/16 01:40:11;;;;;;;0.20;0.20;;;;;;;20.71;40.53;101641.09;5090560;28;20360;-45
2023/04/16 01:42:37;;;;;;;0.20;0.20;;;;;;;20.71;40.62;101646.63;5078874;28;20426;-46
2023/04/16 01:45:04;;;;;;;0.20;0.20;;;;;;;20.71;40.67;101643.84;5105102;28;20075;-45
2023/04/16 01:47:29;;;;;;;0.20;0.20;;;;;;;20.70;40.60;101650.50;5091607;28;20077;-46
2023/04/16 01:49:55;;;;;;;0.20;0.20;;;;;;;20.72;40.70;101639.97;5117738;28;20051;-45
2023/04/16 01:52:21;;;;;;;0.20;0.20;;;;;;;20.72;40.48;101648.28;5117563;28;20066;-45
2023/04/16 01:54:47;;;;;;;0.20;0.20;;;;;;;20.71;40.75;101647.44;5107318;28;20066;-45
2023/04/16 01:57:12;;;;;;;0.20;0.20;;;;;;;20.71;40.61;101644.69;5079233;28;20151;-46
2023/04/16 01:59:38;;;;;;;0.20;0.20;;;;;;;20.72;40.59;101637.19;5097117;28;20044;-45
2023/04/16 02:02:09;;;;;;;0.20;0.20;;;;;;;20.72;40.74;101648.28;5097226;28;20043;-45
2023/04/16 02:04:37;;;;;;;0.20;0.20;;;;;;;20.71;40.80;101643.84;5097238;28;20116;-45
2023/04/16 02:07:04;;;;;;;0.20;0.20;;;;;;;20.71;40.62;101647.44;5096992;28;20071;-45
2023/04/16 02:09:30;;;;;;;0.20;0.20;;;;;;;20.72;40.75;101645.50;5078286;28;20048;-45
2023/04/16 02:11:55;;;;;;;0.20;0.20;;;;;;;20.71;40.58;101643.84;5096470;28;20495;-45
2023/04/16 02:14:24;;;;;;;0.20;0.20;;;;;;;20.71;40.76;101644.69;5096156;28;20101;-46
2023/04/16 02:16:50;;;;;;;0.20;0.20;;;;;;;20.71;40.75;101643.84;5078923;28;20149;-46
2023/04/16 02:19:16;;;;;;;0.20;0.20;;;;;;;20.70;40.59;101648.56;5096042;28;20464;-46
2023/04/16 02:21:42;;;;;;;0.20;0.20;;;;;;;20.71;40.69;101641.91;5096120;28;20075;-45
2023/04/16 02:24:08;;;;;;;0.20;0.20;;;;;;;20.71;40.51;101644.69;5096250;28;20459;-45
2023/04/16 02:26:33;;;;;;;0.20;0.20;;;;;;;20.72;40.65;101643.56;5096197;28;20050;-45
2023/04/16 02:29:00;;;;;;;0.20;0.20;;;;;;;20.72;40.58;101649.09;5096453;28;20492;-45
2023/04/16 02:31:27;;;;;;;0.20;0.20;;;;;;;20.72;40.78;101645.50;5096120;28;20100;-46
2023/04/16 02:33:53;;;;;;;0.20;0.20;;;;;;;20.72;40.73;101639.97;5096435;28;20298;-45
2023/04/16 02:36:19;;;;;;;0.20;0.20;;;;;;;20.72;40.66;101639.97;5077721;28;20039;-46
2023/04/16 02:38:45;;;;;;;0.20;0.20;;;;;;;20.71;40.74;101641.09;5077925;28;20411;-45
2023/04/16 02:41:10;;;;;;;0.20;0.20;;;;;;;20.72;40.61;101640.78;5080606;28;20039;-47
2023/04/16 02:43:36;;;;;;;0.20;0.20;;;;;;;20.72;40.45;101640.78;5057985;28;20696;-46
2023/04/16 02:46:02;;;;;;;0.20;0.20;;;;;;;20.72;40.65;101645.50;5095430;28;20054;-47
2023/04/16 02:48:27;;;;;;;0.20;0.20;;;;;;;20.71;40.79;101641.09;5095861;28;20407;-46
2023/04/16 02:50:53;;;;;;;0.30;0.30;;;;;;;20.73;40.43;101647.19;5095895;28;20058;-47
2023/04/16 02:53:19;;;;;;;0.20;0.20;;;;;;;20.72;40.65;101642.75;5095909;28;20430;-47
2023/04/16 02:55:53;;;;;;;0.20;0.20;;;;;;;20.72;40.60;101637.19;5078801;28;20067;-46
2023/04/16 02:58:21;;;;;;;0.20;0.20;;;;;;;20.72;40.54;101649.09;5077915;28;20051;-45
2023/04/16 03:00:47;;;;;;;0.20;0.20;;;;;;;20.72;40.57;101646.34;5096137;28;20267;-46
2023/04/16 03:03:13;;;;;;;0.20;0.20;;;;;;;20.72;40.52;101646.34;5095429;28;20048;-45
2023/04/16 03:05:39;;;;;;;0.20;0.20;;;;;;;20.72;40.56;101648.28;5077519;28;20082;-45
2023/04/16 03:08:06;;;;;;;0.20;0.20;;;;;;;20.73;40.55;101642.47;5095742;28;20404;-47
2023/04/16 03:10:31;;;;;;;0.20;0.20;;;;;;;20.72;40.52;101646.34;5060923;28;20468;-44
2023/04/16 03:12:57;;;;;;;0.20;0.20;;;;;;;20.73;40.50;101652.72;5095726;28;20135;-46
2023/04/16 03:15:24;;;;;;;0.20;0.20;;;;;;;20.72;40.46;101651.03;5095551;28;20833;-45
2023/04/16 03:17:50;;;;;;;0.20;0.20;;;;;;;20.72;40.53;101656.56;5057638;28;20044;-46
2023/04/16 03:20:16;;;;;;;0.20;0.20;;;;;;;20.71;40.46;101652.97;5057737;28;20044;-45
2023/04/16 03:22:42;;;;;;;0.20;0.20;;;;;;;20.72;40.48;101662.13;5075375;28;20053;-45
2023/04/16 03:25:08;;;;;;;0.20;0.20;;;;;;;20.73;40.52;101658.25;5088488;28;20070;-45
2023/04/16 03:27:34;;;;;;;0.20;0.20;;;;;;;20.72;40.48;101662.13;5077041;28;20047;-45
2023/04/16 03:30:00;;;;;;;0.20;0.20;;;;;;;20.72;40.42;101659.34;5077573;28;20066;-45
2023/04/16 03:32:25;;;;;;;0.20;0.20;;;;;;;20.72;40.54;101656.56;5113011;27;20134;-46
2023/04/16 03:34:51;;;;;;;0.20;0.20;;;;;;;20.72;40.56;101651.88;5104124;28;20051;-45
2023/04/16 03:37:17;;;;;;;0.20;0.20;;;;;;;20.72;40.58;101657.41;5095360;28;20071;-46
2023/04/16 03:39:42;;;;;;;0.20;0.20;;;;;;;20.72;40.35;101664.88;5095567;28;20524;-45
2023/04/16 03:42:08;;;;;;;0.20;0.20;;;;;;;20.73;40.57;101661.03;5095404;28;20096;-46
2023/04/16 03:44:34;;;;;;;0.20;0.20;;;;;;;20.73;40.67;101656.31;5094871;28;20048;-45
2023/04/16 03:47:00;;;;;;;0.20;0.20;;;;;;;20.73;40.67;101659.09;5095252;28;20126;-46
2023/04/16 03:49:25;;;;;;;0.20;0.20;;;;;;;20.73;40.68;101661.88;5060373;28;20071;-45
2023/04/16 03:51:51;;;;;;;0.20;0.20;;;;;;;20.74;40.61;101668.22;5096020;28;20100;-46
2023/04/16 03:54:17;;;;;;;0.20;0.20;;;;;;;20.74;40.56;101671.00;5095195;28;20112;-46
2023/04/16 03:56:42;;;;;;;0.20;0.20;;;;;;;20.73;40.39;101674.88;5095250;28;20057;-47
2023/04/16 03:59:09;;;;;;;0.20;0.20;;;;;;;20.74;40.54;101673.75;5095495;28;20450;-46
2023/04/16 04:01:35;;;;;;;0.20;0.20;;;;;;;20.71;40.55;101664.06;5095914;28;20040;-46
2023/04/16 04:04:01;;;;;;;0.20;0.20;;;;;;;20.72;40.60;101662.94;5095148;28;20561;-45
2023/04/16 04:06:26;;;;;;;0.20;0.20;;;;;;;20.72;40.59;101664.88;5095038;28;20043;-46
2023/04/16 04:08:52;;;;;;;0.20;0.20;;;;;;;20.72;40.45;101668.47;5094889;28;20048;-45
2023/04/16 04:11:18;;;;;;;0.20;0.20;;;;;;;20.73;40.74;101672.09;5077230;28;20043;-45
2023/04/16 04:13:44;;;;;;;0.20;0.20;;;;;;;20.73;40.63;101672.94;5095218;28;20047;-45
2023/04/16 04:16:10;;;;;;;0.20;0.20;;;;;;;20.74;40.64;101671.00;5094736;28;20043;-47
2023/04/16 04:18:36;;;;;;;0.20;0.20;;;;;;;20.75;40.68;101675.41;5076413;28;20069;-47
2023/04/16 04:21:09;;;;;;;0.20;0.20;;;;;;;20.75;40.74;101672.66;5094948;28;20514;-45
2023/04/16 04:23:35;;;;;;;0.20;0.20;;;;;;;20.74;40.57;101668.22;5076495;28;20151;-45
2023/04/16 04:26:04;;;;;;;0.20;0.20;;;;;;;20.73;40.63;101675.69;5075826;28;20578;-45
2023/04/16 04:28:30;;;;;;;0.20;0.20;;;;;;;20.74;40.55;101669.06;5076395;28;20054;-45
2023/04/16 04:30:57;;;;;;;0.20;0.20;;;;;;;20.74;40.66;101673.75;5094464;28;20476;-49
2023/04/16 04:33:23;;;;;;;0.20;0.20;;;;;;;20.74;40.58;101674.59;5088335;28;20131;-45
2023/04/16 04:35:49;;;;;;;0.20;0.20;;;;;;;20.73;40.49;101678.47;5096754;28;20624;-46
2023/04/16 04:38:18;;;;;;;0.20;0.20;;;;;;;20.74;40.71;101673.75;5094416;28;20098;-46
2023/04/16 04:40:44;;;;;;;0.20;0.20;;;;;;;20.73;40.59;101680.41;5093920;28;20054;-49
2023/04/16 04:43:10;;;;;;;0.20;0.20;;;;;;;20.74;40.72;101685.66;5094806;28;20453;-45
2023/04/16 04:45:36;;;;;;;0.20;0.20;;;;;;;20.76;40.60;101693.69;5093957;28;20047;-45
2023/04/16 04:48:01;;;;;;;0.20;0.20;;;;;;;20.75;40.56;101690.09;5094134;28;20555;-45
2023/04/16 04:50:27;;;;;;;0.20;0.20;;;;;;;20.75;40.60;101697.56;5076065;28;20059;-46
2023/04/16 04:52:53;;;;;;;0.20;0.20;;;;;;;20.73;40.64;101692.31;5105852;28;20571;-45
2023/04/16 04:55:19;;;;;;;0.20;0.20;;;;;;;20.73;40.63;101683.19;5101017;28;20044;-45
2023/04/16 04:57:45;;;;;;;0.20;0.20;;;;;;;20.74;40.66;101690.38;5097295;28;20040;-46
2023/04/16 05:00:11;;;;;;;0.20;0.20;;;;;;;20.74;40.58;101693.13;5097548;28;20044;-46
2023/04/16 05:02:37;;;;;;;0.20;0.20;;;;;;;20.74;40.58;101693.97;5079913;28;20055;-47
2023/04/16 05:05:04;;;;;;;0.20;0.20;;;;;;;20.74;40.52;101693.13;5098173;28;20491;-47
2023/04/16 05:07:29;;;;;;;0.20;0.20;;;;;;;20.74;40.48;101699.50;5079562;28;20656;-46
2023/04/16 05:09:55;;;;;;;0.20;0.20;;;;;;;20.75;40.57;101694.78;5097946;28;20080;-45
2023/04/16 05:12:21;;;;;;;0.20;0.20;;;;;;;20.75;40.43;101700.31;5098057;28;20047;-45
2023/04/16 05:14:46;;;;;;;0.20;0.20;;;;;;;20.75;40.56;101700.31;5098166;28;20406;-45
2023/04/16 05:17:12;;;;;;;0.20;0.20;;;;;;;20.74;40.40;101705.03;5079521;28;20354;-45
2023/04/16 05:19:38;;;;;;;0.20;0.20;;;;;;;20.74;40.54;101710.56;5097968;28;20051;-45
2023/04/16 05:22:03;;;;;;;0.20;0.20;;;;;;;20.75;40.64;101705.88;5098060;28;20044;-47
2023/04/16 05:24:29;;;;;;;0.20;0.20;;;;;;;20.75;40.65;101708.63;5098248;28;20054;-45
2023/04/16 05:26:56;;;;;;;0.20;0.20;;;;;;;20.74;40.59;101712.50;5097656;28;20283;-46
2023/04/16 05:29:21;;;;;;;0.20;0.20;;;;;;;20.74;40.55;101715.28;5097594;28;20307;-47
2023/04/16 05:31:47;;;;;;;0.20;0.20;;;;;;;20.74;40.61;101718.06;5097614;28;20503;-46
2023/04/16 05:34:13;;;;;;;0.20;0.20;;;;;;;20.75;40.66;101716.94;5101551;28;20096;-45
2023/04/16 05:36:38;;;;;;;0.20;0.20;;;;;;;20.74;40.61;101720.81;5107712;28;20411;-45
2023/04/16 05:39:04;;;;;;;0.20;0.20;;;;;;;20.76;40.40;101724.13;5091510;28;20199;-46
2023/04/16 05:41:30;;;;;;;0.10;0.10;;;;;;;20.74;40.52;101732.72;5077142;28;20570;-45
2023/04/16 05:43:56;;;;;;;0.20;0.20;;;;;;;20.74;40.54;101731.88;5080127;28;20062;-46
2023/04/16 05:46:21;;;;;;;0.20;0.20;;;;;;;20.74;40.34;101727.19;5097511;28;20361;-45
2023/04/16 05:48:47;;;;;;;0.20;0.20;;;;;;;20.75;40.72;101733.53;5096849;28;20058;-46
2023/04/16 05:51:13;;;;;;;0.20;0.20;;;;;;;20.75;40.43;101733.53;5097171;28;20503;-45
2023/04/16 05:53:38;;;;;;;0.20;0.20;;;;;;;20.75;40.63;101737.16;5096896;28;20047;-45
2023/04/16 05:56:04;;;;;;;0.20;0.20;;;;;;;20.74;40.47;101729.94;5111853;28;20513;-45
2023/04/16 05:58:30;;;;;;;0.20;0.20;;;;;;;20.75;40.73;101734.38;5097036;28;20071;-45
2023/04/16 06:00:56;;;;;;;0.20;0.20;;;;;;;20.75;40.62;101744.63;5097143;28;20054;-45
2023/04/16 06:03:21;;;;;;;0.20;0.20;;;;;;;20.75;40.47;101745.44;5097024;28;20059;-45
2023/04/16 06:05:47;;;;;;;0.20;0.20;;;;;;;20.75;40.65;101748.22;5096614;28;20310;-46
2023/04/16 06:08:13;;;;;;;0.20;0.20;;;;;;;20.77;40.29;101754.31;5096799;28;20171;-47
2023/04/16 06:10:39;;;;;;;0.20;0.20;;;;;;;20.75;40.37;101755.69;5096613;28;20480;-46
2023/04/16 06:13:04;;;;;;;0.20;0.20;;;;;;;20.75;40.59;101752.91;5096369;28;20154;-45
2023/04/16 06:15:30;;;;;;;0.20;0.20;;;;;;;20.76;40.58;101760.13;5096561;28;20058;-46
2023/04/16 06:17:56;;;;;;;0.20;0.20;;;;;;;20.76;40.54;101757.34;5097327;28;20496;-45
2023/04/16 06:20:24;;;;;;;0.20;0.20;;;;;;;20.75;40.50;101752.91;5078656;28;20047;-45
2023/04/16 06:22:50;;;;;;;0.20;0.20;;;;;;;20.76;40.63;101765.66;5096696;28;20047;-45
2023/04/16 06:25:16;;;;;;;0.20;0.20;;;;;;;20.75;40.38;101764.81;5096331;28;20548;-45
2023/04/16 06:27:43;;;;;;;0.20;0.20;;;;;;;20.76;40.56;101768.41;5096895;28;20047;-45
2023/04/16 06:30:11;;;;;;;0.20;0.20;;;;;;;20.76;40.49;101766.47;5096123;28;20050;-46
2023/04/16 06:32:37;;;;;;;;;;;;;;;20.75;40.55;101769.53;5077942;28;20071;-45
2023/04/16 06:35:03;;;;;;;0.20;0.20;;;;;;;20.75;40.67;101775.91;5095712;28;19927;-46
2023/04/16 06:37:29;;;;;;;0.20;0.20;;;;;;;20.75;40.53;101775.91;5097662;28;20052;-45
2023/04/16 06:39:54;;;;;;;0.20;0.20;;;;;;;20.77;40.57;101775.66;5096448;28;20111;-45
2023/04/16 06:42:20;;;;;;;0.20;0.20;;;;;;;20.75;40.59;101778.66;5096349;28;20062;-46
2023/04/16 06:44:46;;;;;;;0.20;0.20;;;;;;;20.77;40.53;101781.19;5095839;28;20579;-46
2023/04/16 06:47:12;;;;;;;0.20;0.20;;;;;;;20.75;40.62;101780.59;5095924;28;20093;-46
2023/04/16 06:49:38;;;;;;;0.20;0.20;;;;;;;20.76;40.55;101780.31;5096063;28;20465;-46
2023/04/16 06:52:04;;;;;;;0.20;0.20;;;;;;;20.77;40.54;101783.94;5096272;28;20328;-45
2023/04/16 06:54:31;;;;;;;0.20;0.20;;;;;;;20.75;40.54;101778.66;5077813;28;20503;-45
2023/04/16 06:56:57;;;;;;;0.20;0.20;;;;;;;20.76;40.51;101794.16;5102180;28;20469;-46
2023/04/16 06:59:22;;;;;;;0.20;0.20;;;;;;;20.76;40.49;101793.34;5096057;28;20109;-46
2023/04/16 07:01:48;;;;;;;0.20;0.20;;;;;;;20.78;40.55;101791.16;5095617;28;20047;-47
2023/04/16 07:04:14;;;;;;;0.20;0.20;;;;;;;20.76;40.39;101791.41;5095913;28;20047;-46
2023/04/16 07:06:40;;;;;;;0.20;0.20;;;;;;;20.76;40.46;101796.94;5095404;28;20153;-44
2023/04/16 07:09:05;;;;;;;0.20;0.20;;;;;;;20.77;40.69;101795.84;5096337;28;20120;-46
2023/04/16 07:11:31;;;;;;;0.20;0.20;;;;;;;20.77;40.43;101800.56;5096110;28;20237;-46
2023/04/16 07:13:57;;;;;;;0.20;0.20;;;;;;;20.76;40.70;101805.22;5095818;28;20044;-45
2023/04/16 07:16:23;;;;;;;0.20;0.20;;;;;;;20.77;40.54;101800.56;5096177;28;20044;-45
2023/04/16 07:18:49;;;;;;;0.20;0.20;;;;;;;20.76;40.56;101805.22;5095698;28;20095;-45
2023/04/16 07:21:14;;;;;;;0.20;0.20;;;;;;;20.76;40.53;101796.94;5096485;28;20132;-45
2023/04/16 07:23:40;;;;;;;0.20;0.20;;;;;;;20.75;40.47;101798.03;5095550;28;20068;-44
2023/04/16 07:26:06;;;;;;;0.20;0.20;;;;;;;20.76;40.43;101805.22;5095725;28;20065;-44
2023/04/16 07:28:31;;;;;;;0.20;0.20;;;;;;;20.76;40.48;101801.63;5095644;28;20044;-45
2023/04/16 07:30:57;;;;;;;0.25;0.25;;;;;;;20.78;40.34;101802.22;5077666;28;20079;-45
2023/04/16 07:33:23;;;;;;;0.20;0.20;;;;;;;20.78;40.31;101807.75;5095613;28;20039;-45
2023/04/16 07:35:50;;;;;;;0.20;0.20;;;;;;;20.77;40.47;101801.38;5095480;28;20053;-46
2023/04/16 07:38:15;;;;;;;0.20;0.20;;;;;;;20.77;40.61;101808.88;5092173;28;20678;-47
2023/04/16 07:40:41;;;;;;;0.20;0.20;;;;;;;20.76;40.61;101808.00;5095903;28;20353;-46
2023/04/16 07:43:06;;;;;;;0.20;0.20;;;;;;;20.77;40.44;101806.94;5115017;28;20384;-45
2023/04/16 07:45:32;;;;;;;0.20;0.20;;;;;;;20.77;40.50;101803.31;5099489;28;20074;-45
2023/04/16 07:47:58;;;;;;;0.20;0.20;;;;;;;20.77;40.50;101809.69;5095025;28;20054;-45
2023/04/16 07:50:24;;;;;;;0.20;0.20;;;;;;;20.78;40.61;101818.81;5095712;28;20040;-46
2023/04/16 07:52:49;;;;;;;0.20;0.20;;;;;;;20.76;40.55;101815.47;5077308;28;20051;-46
2023/04/16 07:55:15;;;;;;;0.20;0.20;;;;;;;20.77;40.62;101819.94;5094954;28;20082;-45
2023/04/16 07:57:41;;;;;;;0.20;0.20;;;;;;;20.77;40.41;101826.31;5095522;28;20496;-45
2023/04/16 08:00:08;;;;;;;0.20;0.20;;;;;;;20.77;40.42;101823.53;5095610;28;20047;-46
2023/04/16 08:02:33;;;;;;;0.20;0.20;;;;;;;20.78;40.47;101827.13;5094281;28;20494;-46
2023/04/16 08:04:59;;;;;;;0.20;0.20;;;;;;;20.78;40.42;101827.13;5095272;28;20314;-46
2023/04/16 08:07:25;;;;;;;0.20;0.20;;;;;;;20.77;40.58;101826.31;5094743;28;20052;-46
2023/04/16 08:09:51;;;;;;;0.20;0.20;;;;;;;20.77;40.56;101831.84;5094755;28;20054;-45
2023/04/16 08:12:17;;;;;;;0.20;0.20;;;;;;;20.76;40.50;101835.69;5095903;28;20407;-46
2023/04/16 08:14:44;;;;;;;0.20;0.20;;;;;;;20.77;40.44;101831.84;5094944;28;20342;-44
2023/04/16 08:17:11;;;;;;;0.20;0.20;;;;;;;20.79;40.33;101831.56;5094855;28;20078;-45
2023/04/16 08:19:37;;;;;;;0.20;0.20;;;;;;;20.77;40.48;101842.09;5076870;28;20044;-44
2023/04/16 08:22:02;;;;;;;0.20;0.20;;;;;;;20.77;40.70;101845.69;5095512;28;20411;-45
2023/04/16 08:24:28;;;;;;;0.20;0.20;;;;;;;20.78;40.42;101846.50;5095299;28;20225;-48
2023/04/16 08:26:54;;;;;;;0.20;0.20;;;;;;;20.77;40.39;101854.00;5094969;28;20400;-46
2023/04/16 08:29:25;;;;;;;0.20;0.20;;;;;;;20.77;40.53;101851.22;5096052;28;20501;-45
2023/04/16 08:31:52;;;;;;;0.20;0.20;;;;;;;20.77;40.30;101848.44;5098740;28;20475;-47
2023/04/16 08:34:18;;;;;;;0.20;0.20;;;;;;;20.78;40.58;101850.09;5098521;28;20721;-48
2023/04/16 08:36:44;;;;;;;0.20;0.20;;;;;;;20.78;40.61;101852.88;5098392;28;20174;-45
2023/04/16 08:39:10;;;;;;;0.20;0.20;;;;;;;20.78;40.45;101854.81;5107908;28;20380;-46
2023/04/16 08:41:40;;;;;;;0.20;0.20;;;;;;;20.78;40.62;101863.94;5098792;28;20058;-45
2023/04/16 08:44:07;;;;;;;0.20;0.20;;;;;;;20.78;40.59;101871.44;5095931;28;20156;-45
2023/04/16 08:46:36;;;;;;;0.10;0.10;;;;;;;20.77;40.48;101864.22;5079985;28;20044;-45
2023/04/16 08:49:05;;;;;;;0.20;0.20;;;;;;;20.78;40.70;101874.19;5079685;28;20044;-45
2023/04/16 08:51:33;;;;;;;0.13;0.13;;;;;;;20.77;40.38;101881.66;5079801;28;20039;-46
2023/04/16 08:54:03;;;;;;;;;;;;;;;20.78;40.56;101877.78;5098988;28;20051;-47
2023/04/16 08:56:30;;;;;;;0.20;0.20;;;;;;;20.78;40.40;101879.72;5098065;28;19985;-47
2023/04/16 08:58:57;;;;;;;0.20;0.20;;;;;;;20.78;40.52;101875.03;5098159;28;20044;-45
2023/04/16 09:01:25;;;;;;;0.20;0.20;;;;;;;20.78;40.41;101880.56;5098132;28;20472;-47
2023/04/16 09:03:51;;;;;;;0.20;0.20;;;;;;;20.78;40.52;101880.56;5096904;28;20529;-46
2023/04/16 09:06:17;;;;;;;0.20;0.20;;;;;;;20.79;40.60;101881.38;5098153;28;20526;-46
2023/04/16 09:08:44;;;;;;;0.20;0.20;;;;;;;20.79;40.53;101887.75;5097880;28;20043;-45
2023/04/16 09:11:10;;;;;;;0.20;0.20;;;;;;;20.78;40.52;101879.72;5097927;28;20047;-47
2023/04/16 09:13:36;;;;;;;0.20;0.20;;;;;;;20.79;40.45;101875.84;5097984;28;20054;-45
2023/04/16 09:16:02;;;;;;;0.20;0.20;;;;;;;20.79;40.51;101873.09;5064521;28;20507;-45
2023/04/16 09:18:29;;;;;;;0.10;0.10;;;;;;;20.78;40.39;101880.56;5062827;28;20047;-45
2023/04/16 09:20:55;;;;;;;0.20;0.20;;;;;;;20.78;40.49;101877.78;5079563;28;20047;-47
2023/04/16 09:23:21;;;;;;;0.20;0.20;;;;;;;20.77;40.44;101878.91;5097719;28;20184;-45
2023/04/16 09:25:47;;;;;;;0.20;0.20;;;;;;;20.77;40.62;101881.66;5097559;28;20602;-45
2023/04/16 09:28:40;;;;;;;0.20;0.20;;;;;;;20.79;40.53;101884.16;5096940;28;20063;-45
2023/04/16 09:31:13;;;;;;;0.20;0.20;;;;;;;20.78;40.44;101880.56;5083002;28;20460;-44
2023/04/16 09:33:39;;;;;;;0.20;0.20;;;;;;;20.78;40.44;101876.97;5078862;28;20043;-47
2023/04/16 09:36:06;;;;;;;0.20;0.20;;;;;;;20.77;40.62;101884.44;5079166;28;20071;-46
2023/04/16 09:38:48;;;;;;;0.20;0.20;;;;;;;20.79;40.68;101885.00;5088521;28;20492;-45
2023/04/16 09:41:15;;;;;;;0.20;0.20;;;;;;;20.78;40.61;101880.56;5096079;28;20059;-46
2023/04/16 09:43:56;;;;;;;0.20;0.20;;;;;;;20.79;40.60;101890.53;5098953;28;20047;-47
2023/04/16 09:46:23;;;;;;;0.20;0.20;;;;;;;20.79;40.48;101890.53;5089687;28;20047;-45
2023/04/16 09:48:48;;;;;;;0.20;0.20;;;;;;;20.80;40.48;101894.13;5078792;28;20055;-45
2023/04/16 09:51:14;;;;;;;0.20;0.20;;;;;;;20.78;40.35;101894.41;5097098;28;20040;-46
2023/04/16 09:53:40;;;;;;;0.20;0.20;;;;;;;20.79;40.63;101889.69;5096760;28;20043;-46
2023/04/16 09:56:06;;;;;;;0.20;0.20;;;;;;;20.79;40.36;101885.00;5079078;28;20170;-48
2023/04/16 09:58:35;;;;;;;0.20;0.20;;;;;;;20.80;40.45;101894.94;5078749;28;20047;-45
2023/04/16 10:01:04;;;;;;;0.20;0.20;;;;;;;20.79;40.35;101887.75;5069598;28;20463;-45
2023/04/16 10:03:31;;;;;;;0.20;0.20;;;;;;;20.79;40.52;101896.06;5117553;28;20400;-46
2023/04/16 10:06:06;;;;;;;0.10;0.10;;;;;;;20.79;40.62;101893.28;5079467;28;20079;-45
2023/04/16 10:08:32;;;;;;;0.20;0.20;;;;;;;20.78;40.40;101886.09;5097128;28;20047;-46
2023/04/16 10:10:58;;;;;;;0.20;0.20;;;;;;;20.80;40.47;101900.50;5096732;28;20048;-45
2023/04/16 10:13:26;;;;;;;0.20;0.20;;;;;;;20.79;40.44;101898.84;5078766;28;20145;-45
2023/04/16 10:15:54;;;;;;;0.20;0.20;;;;;;;20.79;40.64;101898.00;5096986;28;20098;-44
2023/04/16 10:18:21;;;;;;;0.20;0.20;;;;;;;20.79;40.56;101898.00;5078885;28;20492;-48
2023/04/16 10:20:46;;;;;;;0.20;0.20;;;;;;;20.80;40.42;101900.50;5078569;28;20394;-45
2023/04/16 10:23:13;;;;;;;0.20;0.20;;;;;;;20.80;40.46;101902.44;5096925;28;20543;-47
2023/04/16 10:25:39;;;;;;;0.20;0.20;;;;;;;20.80;40.60;101897.72;5096841;28;20109;-45
2023/04/16 10:28:05;;;;;;;0.20;0.20;;;;;;;20.80;40.63;101900.50;5096956;28;20047;-45
2023/04/16 10:30:32;;;;;;;0.20;0.20;;;;;;;20.80;40.33;101899.66;5096470;28;20091;-45
2023/04/16 10:32:58;;;;;;;0.20;0.20;;;;;;;20.79;40.53;101904.38;5096789;28;20777;-45
2023/04/16 10:35:26;;;;;;;0.20;0.20;;;;;;;20.79;40.65;101898.84;5095983;28;20336;-45
2023/04/16 10:38:27;;;;;;;0.30;0.30;;;;;;;20.78;40.68;101902.72;5096516;28;20411;-45
2023/04/16 10:41:08;;;;;;;0.20;0.20;;;;;;;20.79;40.54;101898.00;5066112;28;20050;-45
2023/04/16 10:43:50;;;;;;;0.20;0.20;;;;;;;20.79;40.42;101892.47;5107895;28;20062;-45
2023/04/16 10:48:54;;;;;;;0.20;0.20;;;;;;;20.78;40.56;101891.63;5174965;27;20119;-42
2023/04/16 10:51:31;;;;;;;0.20;0.20;;;;;;;20.80;40.38;101896.88;5153525;27;20046;-44
2023/04/16 10:54:03;;;;;;;0.20;0.20;;;;;;;20.80;40.63;101894.13;5112077;27;20058;-43
2023/04/16 10:56:31;;;;;;;0.20;0.20;;;;;;;20.79;40.38;101896.06;5093611;28;20526;-43
2023/04/16 10:58:57;;;;;;;0.20;0.20;;;;;;;20.80;40.49;101891.34;5093647;28;20043;-42
2023/04/16 11:01:43;;;;;;;0.20;0.20;;;;;;;20.80;40.60;101886.66;5076666;28;20562;-45
2023/04/16 11:04:25;;;;;;;0.20;0.20;;;;;;;20.78;40.36;101891.63;5126664;27;20274;-45
2023/04/16 11:07:19;;;;;;;0.20;0.20;;;;;;;20.79;40.55;101884.16;5093284;28;20255;-47
2023/04/16 11:09:50;;;;;;;0.20;0.20;;;;;;;20.78;40.38;101886.09;5082793;28;20102;-44
2023/04/16 11:12:18;;;;;;;0.20;0.20;;;;;;;20.80;40.56;101891.34;5111576;28;20043;-46
2023/04/16 11:14:47;;;;;;;0.20;0.20;;;;;;;20.80;40.56;101889.41;5093324;28;20597;-45
2023/04/16 11:17:13;;;;;;;0.20;0.20;;;;;;;20.79;40.32;101892.47;5111484;27;20322;-47
2023/04/16 11:19:38;;;;;;;0.20;0.20;;;;;;;20.79;40.55;101887.75;5111837;28;20043;-45
2023/04/16 11:22:04;;;;;;;0.20;0.20;;;;;;;20.82;40.47;101891.09;5111723;28;20639;-45
2023/04/16 11:24:31;;;;;;;0.20;0.20;;;;;;;20.81;40.52;101895.78;5092794;28;20054;-45
2023/04/16 11:26:56;;;;;;;0.20;0.20;;;;;;;20.80;40.43;101892.19;5075911;28;20096;-46